Time;durP1;ratioP1;P1;durP2;ratioP2;P2;SDS_P1;SDS_P2;PMS_P1;PMS_P2;Temp;Humidity;BMP_temperature;BMP_pressure;BME280_temperature;BME280_humidity;BME280_pressure;Samples;Min_cycle;Max_cycle;Signal;HPM_P1;HPM_P2
2022/04/22 00:01:53;;;;;;;9.75;4.00;;;;;;;;;;5124963;27;20075;-65
2022/04/22 00:04:19;;;;;;;9.32;4.13;;;;;;;;;;5112591;27;20056;-65
2022/04/22 00:06:46;;;;;;;7.53;4.22;;;;;;;;;;5109579;27;20071;-65
2022/04/22 00:09:12;;;;;;;7.63;4.10;;;;;;;;;;5107127;27;20561;-66
2022/04/22 00:11:38;;;;;;;12.23;4.40;;;;;;;;;;5107258;27;20083;-65
2022/04/22 00:14:06;;;;;;;8.73;4.00;;;;;;;;;;5123497;27;20136;-65
2022/04/22 00:16:32;;;;;;;9.57;4.70;;;;;;;;;;5125400;27;20133;-65
2022/04/22 00:18:59;;;;;;;8.25;4.20;;;;;;;;;;5117507;27;20056;-65
2022/04/22 00:21:26;;;;;;;7.28;4.13;;;;;;;;;;5121440;27;20528;-63
2022/04/22 00:23:53;;;;;;;9.95;4.53;;;;;;;;;;5116072;27;20093;-64
2022/04/22 00:26:20;;;;;;;8.15;4.10;;;;;;;;;;5115164;27;20085;-64
2022/04/22 00:28:46;;;;;;;9.95;5.05;;;;;;;;;;5109412;27;20437;-64
2022/04/22 00:31:13;;;;;;;10.52;5.28;;;;;;;;;;5108310;27;20094;-64
2022/04/22 00:33:41;;;;;;;10.35;4.60;;;;;;;;;;5118987;27;20054;-64
2022/04/22 00:36:07;;;;;;;10.25;5.10;;;;;;;;;;5111250;27;20084;-64
2022/04/22 00:38:34;;;;;;;8.85;5.20;;;;;;;;;;5110644;27;20132;-64
2022/04/22 00:41:00;;;;;;;10.45;4.82;;;;;;;;;;5125159;27;20048;-64
2022/04/22 00:43:27;;;;;;;10.57;4.53;;;;;;;;;;5115963;27;20044;-64
2022/04/22 00:45:54;;;;;;;11.30;4.95;;;;;;;;;;5112417;27;20142;-64
2022/04/22 00:48:21;;;;;;;10.55;4.60;;;;;;;;;;5128737;27;20075;-64
2022/04/22 00:50:48;;;;;;;7.93;4.50;;;;;;;;;;5118077;27;20080;-64
2022/04/22 00:53:14;;;;;;;6.95;4.00;;;;;;;;;;5109325;27;20478;-64
2022/04/22 00:55:44;;;;;;;9.52;4.75;;;;;;;;;;5118141;27;20146;-64
2022/04/22 00:58:11;;;;;;;8.30;4.53;;;;;;;;;;5127215;27;20043;-64
2022/04/22 01:00:39;;;;;;;10.73;4.95;;;;;;;;;;5124316;27;20098;-64
2022/04/22 01:03:05;;;;;;;8.25;4.72;;;;;;;;;;5110916;27;20534;-63
2022/04/22 01:11:02;;;;;;;11.85;4.53;;;;;;;;;;5120737;27;20144;-63
2022/04/22 01:13:28;;;;;;;11.55;5.05;;;;;;;;;;5109241;27;20077;-63
2022/04/22 01:15:56;;;;;;;10.40;5.10;;;;;;;;;;5109279;27;20098;-63
2022/04/22 01:18:22;;;;;;;8.07;4.78;;;;;;;;;;5107465;27;20036;-63
2022/04/22 01:20:48;;;;;;;12.77;4.80;;;;;;;;;;5118248;27;20652;-63
2022/04/22 01:23:15;;;;;;;11.27;4.63;;;;;;;;;;5124662;27;20545;-63
2022/04/22 01:25:41;;;;;;;9.63;3.90;;;;;;;;;;5122945;27;20071;-63
2022/04/22 01:28:10;;;;;;;10.65;4.75;;;;;;;;;;5121803;27;20139;-63
2022/04/22 01:30:36;;;;;;;10.60;4.57;;;;;;;;;;5125873;27;20589;-63
2022/04/22 01:33:02;;;;;;;8.40;4.43;;;;;;;;;;5112368;27;20110;-63
2022/04/22 01:35:29;;;;;;;8.73;4.80;;;;;;;;;;5113796;27;20087;-63
2022/04/22 01:37:55;;;;;;;9.20;4.90;;;;;;;;;;5123160;27;20158;-63
2022/04/22 01:40:21;;;;;;;9.93;5.63;;;;;;;;;;5120104;27;20575;-64
2022/04/22 01:42:48;;;;;;;11.70;5.03;;;;;;;;;;5123439;27;20141;-63
2022/04/22 01:45:14;;;;;;;11.30;5.32;;;;;;;;;;5114038;27;20178;-63
2022/04/22 01:47:40;;;;;;;8.82;5.47;;;;;;;;;;5109384;27;20114;-65
2022/04/22 01:50:07;;;;;;;8.68;4.65;;;;;;;;;;5109608;27;20707;-65
2022/04/22 01:52:34;;;;;;;19.67;6.78;;;;;;;;;;5112707;27;20052;-65
2022/04/22 01:55:00;;;;;;;9.45;5.22;;;;;;;;;;5116037;27;20091;-65
2022/04/22 01:57:26;;;;;;;8.68;4.75;;;;;;;;;;5113686;27;20105;-65
2022/04/22 01:59:53;;;;;;;10.48;4.28;;;;;;;;;;5109893;27;20083;-65
2022/04/22 02:02:19;;;;;;;10.90;4.65;;;;;;;;;;5112504;27;20091;-65
2022/04/22 02:04:45;;;;;;;7.90;4.30;;;;;;;;;;5126034;27;20135;-65
2022/04/22 02:07:12;;;;;;;10.68;4.80;;;;;;;;;;5112141;27;20058;-64
2022/04/22 02:09:38;;;;;;;10.45;4.82;;;;;;;;;;5113423;27;20154;-65
2022/04/22 02:12:05;;;;;;;8.68;4.40;;;;;;;;;;5130261;27;20143;-65
2022/04/22 02:14:31;;;;;;;8.95;4.72;;;;;;;;;;5130422;27;20529;-65
2022/04/22 02:16:58;;;;;;;9.63;4.50;;;;;;;;;;5114111;27;20058;-65
2022/04/22 02:19:29;;;;;;;11.93;4.57;;;;;;;;;;5130808;27;20051;-64
2022/04/22 02:21:55;;;;;;;10.45;4.70;;;;;;;;;;5129919;27;20646;-65
2022/04/22 02:24:21;;;;;;;10.77;4.80;;;;;;;;;;5112604;27;20047;-64
2022/04/22 02:29:33;;;;;;;10.48;4.88;;;;;;;;;;5111437;27;20143;-65
2022/04/22 02:32:00;;;;;;;9.05;4.10;;;;;;;;;;5109791;27;20068;-65
2022/04/22 02:34:26;;;;;;;10.73;4.70;;;;;;;;;;5113516;27;20490;-65
2022/04/22 02:36:52;;;;;;;12.02;5.15;;;;;;;;;;5118600;27;20563;-64
2022/04/22 02:39:19;;;;;;;10.43;4.38;;;;;;;;;;5121719;27;20051;-65
2022/04/22 02:47:15;;;;;;;15.25;5.03;;;;;;;;;;5119966;27;20146;-64
2022/04/22 02:49:44;;;;;;;13.27;5.40;;;;;;;;;;5112714;27;20167;-64
2022/04/22 02:52:11;;;;;;;7.68;3.78;;;;;;;;;;5115788;27;20504;-65
2022/04/22 02:54:38;;;;;;;8.77;4.45;;;;;;;;;;5128234;27;20055;-64
2022/04/22 02:57:05;;;;;;;9.18;4.63;;;;;;;;;;5121631;27;20082;-64
2022/04/22 02:59:31;;;;;;;13.18;5.32;;;;;;;;;;5118612;27;20213;-65
2022/04/22 03:01:58;;;;;;;10.90;5.10;;;;;;;;;;5120657;27;20098;-64
2022/04/22 03:04:27;;;;;;;12.98;4.93;;;;;;;;;;5108982;27;20091;-64
2022/04/22 03:06:56;;;;;;;13.20;4.90;;;;;;;;;;5107646;27;20059;-64
2022/04/22 03:09:23;;;;;;;9.60;5.20;;;;;;;;;;5110521;27;20083;-64
2022/04/22 03:11:50;;;;;;;8.88;4.90;;;;;;;;;;5113977;27;20120;-64
2022/04/22 03:14:16;;;;;;;9.77;4.78;;;;;;;;;;5129233;27;20135;-64
2022/04/22 03:16:43;;;;;;;9.13;5.05;;;;;;;;;;5120033;27;20141;-64
2022/04/22 03:19:09;;;;;;;13.13;5.38;;;;;;;;;;5129129;27;20091;-64
2022/04/22 03:21:36;;;;;;;10.02;5.15;;;;;;;;;;5120421;27;20197;-65
2022/04/22 03:24:03;;;;;;;13.75;6.05;;;;;;;;;;5122920;27;20052;-64
2022/04/22 03:26:29;;;;;;;10.32;5.68;;;;;;;;;;5126392;27;20055;-64
2022/04/22 03:28:57;;;;;;;11.98;5.43;;;;;;;;;;5108285;27;20056;-64
2022/04/22 03:31:23;;;;;;;14.15;5.90;;;;;;;;;;5109510;27;20060;-64
2022/04/22 03:33:50;;;;;;;11.95;5.78;;;;;;;;;;5123619;27;20614;-63
2022/04/22 03:36:16;;;;;;;11.93;5.63;;;;;;;;;;5126990;27;20140;-64
2022/04/22 03:38:48;;;;;;;9.77;5.60;;;;;;;;;;5108541;27;20512;-66
2022/04/22 03:41:14;;;;;;;12.93;5.72;;;;;;;;;;5109441;27;20117;-64
2022/04/22 03:43:41;;;;;;;10.27;5.90;;;;;;;;;;5121060;27;20497;-64
2022/04/22 03:46:08;;;;;;;10.38;5.60;;;;;;;;;;5127421;27;20138;-63
2022/04/22 03:48:35;;;;;;;11.02;5.53;;;;;;;;;;5110058;27;20056;-63
2022/04/22 03:51:01;;;;;;;11.52;5.35;;;;;;;;;;5121934;27;20122;-63
2022/04/22 03:53:27;;;;;;;12.45;6.22;;;;;;;;;;5109054;27;20056;-63
2022/04/22 03:55:54;;;;;;;14.73;6.25;;;;;;;;;;5118204;27;20166;-64
2022/04/22 03:58:20;;;;;;;11.00;5.97;;;;;;;;;;5114888;27;20079;-63
2022/04/22 04:00:48;;;;;;;12.25;6.50;;;;;;;;;;5121130;27;20125;-63
2022/04/22 04:03:17;;;;;;;10.82;6.50;;;;;;;;;;5108465;27;20056;-64
2022/04/22 04:05:51;;;;;;;11.25;6.43;;;;;;;;;;5108110;27;20094;-63
2022/04/22 04:08:18;;;;;;;11.07;6.20;;;;;;;;;;5123206;27;20091;-63
2022/04/22 04:16:15;;;;;;;12.02;6.22;;;;;;;;;;5108228;27;20627;-63
2022/04/22 04:18:42;;;;;;;11.75;6.60;;;;;;;;;;5123350;27;20138;-64
2022/04/22 04:24:01;;;;;;;12.40;5.72;;;;;;;;;;5122471;27;20135;-63
2022/04/22 04:26:27;;;;;;;12.32;6.72;;;;;;;;;;5122798;27;20585;-63
2022/04/22 04:28:54;;;;;;;10.00;6.20;;;;;;;;;;5116938;27;20055;-63
2022/04/22 04:31:20;;;;;;;12.32;6.32;;;;;;;;;;5128295;27;20087;-64
2022/04/22 04:33:49;;;;;;;13.88;6.65;;;;;;;;;;5113337;27;20056;-63
2022/04/22 04:36:16;;;;;;;12.57;6.28;;;;;;;;;;5110983;27;20067;-63
2022/04/22 04:38:43;;;;;;;11.57;6.47;;;;;;;;;;5111415;27;20969;-64
2022/04/22 04:41:09;;;;;;;10.07;6.30;;;;;;;;;;5108166;27;20081;-63
2022/04/22 04:43:38;;;;;;;12.35;6.40;;;;;;;;;;5108549;27;20091;-64
2022/04/22 04:46:04;;;;;;;11.18;6.32;;;;;;;;;;5115518;27;20918;-64
2022/04/22 04:48:31;;;;;;;10.88;5.72;;;;;;;;;;5114015;27;20088;-63
2022/04/22 04:50:58;;;;;;;15.98;6.45;;;;;;;;;;5111455;27;20143;-63
2022/04/22 04:53:25;;;;;;;12.63;6.13;;;;;;;;;;5112736;27;20082;-63
2022/04/22 04:55:52;;;;;;;11.63;6.25;;;;;;;;;;5114042;27;20874;-63
2022/04/22 04:58:19;;;;;;;12.88;6.78;;;;;;;;;;5120139;27;20056;-63
2022/04/22 05:00:46;;;;;;;11.63;6.45;;;;;;;;;;5111866;27;20491;-63
2022/04/22 05:03:13;;;;;;;15.15;7.20;;;;;;;;;;5110105;27;20045;-63
2022/04/22 05:05:39;;;;;;;13.50;6.57;;;;;;;;;;5110713;27;20128;-63
2022/04/22 05:08:06;;;;;;;15.35;7.80;;;;;;;;;;5110563;27;20138;-63
2022/04/22 05:10:33;;;;;;;14.80;7.93;;;;;;;;;;5111728;27;20123;-63
2022/04/22 05:12:59;;;;;;;15.93;7.68;;;;;;;;;;5110389;27;20524;-63
2022/04/22 05:15:27;;;;;;;16.65;8.45;;;;;;;;;;5116382;27;20079;-63
2022/04/22 05:17:54;;;;;;;15.13;8.05;;;;;;;;;;5131838;27;20083;-63
2022/04/22 05:20:22;;;;;;;15.20;9.02;;;;;;;;;;5113132;27;20083;-63
2022/04/22 05:22:48;;;;;;;16.20;8.90;;;;;;;;;;5131075;27;20101;-63
2022/04/22 05:25:15;;;;;;;15.05;9.07;;;;;;;;;;5131581;27;20052;-63
2022/04/22 05:27:42;;;;;;;14.40;9.05;;;;;;;;;;5129502;27;20047;-64
2022/04/22 05:32:54;;;;;;;16.95;8.93;;;;;;;;;;5120653;27;20566;-65
2022/04/22 05:35:21;;;;;;;18.92;9.55;;;;;;;;;;5127731;27;20493;-64
2022/04/22 05:37:49;;;;;;;16.48;9.48;;;;;;;;;;5130342;27;20075;-62
2022/04/22 05:40:19;;;;;;;21.85;10.38;;;;;;;;;;5129735;27;20079;-62
2022/04/22 05:42:48;;;;;;;20.70;9.90;;;;;;;;;;5113664;27;20052;-62
2022/04/22 05:45:14;;;;;;;19.10;9.95;;;;;;;;;;5112344;27;20052;-64
2022/04/22 05:47:41;;;;;;;19.77;10.10;;;;;;;;;;5109900;27;20129;-63
2022/04/22 05:50:08;;;;;;;22.77;10.18;;;;;;;;;;5112574;27;20052;-63
2022/04/22 05:52:35;;;;;;;20.88;10.70;;;;;;;;;;5113618;27;20167;-63
2022/04/22 05:55:02;;;;;;;20.20;10.88;;;;;;;;;;5120555;27;20094;-63
2022/04/22 05:57:29;;;;;;;22.13;11.73;;;;;;;;;;5110045;27;20051;-63
2022/04/22 05:59:56;;;;;;;22.23;10.95;;;;;;;;;;5123604;27;20117;-63
2022/04/22 06:02:23;;;;;;;18.70;11.38;;;;;;;;;;5131544;27;20083;-63
2022/04/22 06:04:49;;;;;;;20.02;11.52;;;;;;;;;;5111007;27;20545;-63
2022/04/22 06:07:16;;;;;;;19.35;11.02;;;;;;;;;;5126161;27;20937;-64
2022/04/22 06:12:27;;;;;;;25.55;12.40;;;;;;;;;;5131458;27;20071;-63
2022/04/22 06:14:53;;;;;;;23.38;11.88;;;;;;;;;;5110685;27;20073;-64
2022/04/22 06:17:20;;;;;;;21.83;11.75;;;;;;;;;;5109819;27;20060;-64
2022/04/22 06:19:46;;;;;;;23.40;12.20;;;;;;;;;;5109644;27;20591;-64
2022/04/22 06:22:12;;;;;;;24.98;12.77;;;;;;;;;;5118309;27;20124;-64
2022/04/22 06:24:39;;;;;;;23.25;11.98;;;;;;;;;;5129023;27;20525;-64
2022/04/22 06:27:05;;;;;;;23.00;12.32;;;;;;;;;;5122494;27;20064;-63
2022/04/22 06:29:32;;;;;;;25.20;12.82;;;;;;;;;;5113247;27;20109;-64
2022/04/22 06:31:58;;;;;;;23.02;12.90;;;;;;;;;;5115339;27;20434;-64
2022/04/22 06:34:24;;;;;;;25.08;11.65;;;;;;;;;;5109043;27;20568;-64
2022/04/22 06:36:51;;;;;;;20.30;11.38;;;;;;;;;;5108374;27;20076;-64
2022/04/22 06:39:17;;;;;;;22.20;12.30;;;;;;;;;;5109979;27;20056;-64
2022/04/22 06:47:14;;;;;;;24.38;12.18;;;;;;;;;;5129913;27;20094;-64
2022/04/22 06:49:41;;;;;;;18.23;10.93;;;;;;;;;;5129627;27;20079;-64
2022/04/22 06:52:08;;;;;;;22.38;11.00;;;;;;;;;;5130494;27;20532;-64
2022/04/22 06:54:34;;;;;;;20.17;10.65;;;;;;;;;;5125778;27;20083;-64
2022/04/22 06:57:01;;;;;;;23.17;11.60;;;;;;;;;;5109393;27;20052;-64
2022/04/22 06:59:29;;;;;;;26.15;11.15;;;;;;;;;;5115350;27;20054;-64
2022/04/22 07:01:56;;;;;;;23.60;10.23;;;;;;;;;;5130196;27;20143;-65
2022/04/22 07:04:24;;;;;;;21.27;12.10;;;;;;;;;;5127327;27;20097;-64
2022/04/22 07:06:51;;;;;;;21.45;10.90;;;;;;;;;;5109299;27;20060;-64
2022/04/22 07:09:18;;;;;;;23.48;10.52;;;;;;;;;;5112700;27;20164;-64
2022/04/22 07:11:45;;;;;;;18.80;10.13;;;;;;;;;;5129880;27;20510;-64
2022/04/22 07:14:12;;;;;;;21.98;11.48;;;;;;;;;;5129172;27;20054;-64
2022/04/22 07:16:41;;;;;;;16.10;9.70;;;;;;;;;;5109001;27;20078;-64
2022/04/22 07:19:08;;;;;;;18.08;10.73;;;;;;;;;;5109639;27;20091;-64
2022/04/22 07:21:34;;;;;;;17.73;9.93;;;;;;;;;;5129483;27;20095;-64
2022/04/22 07:24:01;;;;;;;18.05;9.85;;;;;;;;;;5128474;27;20097;-64
2022/04/22 07:26:27;;;;;;;21.60;10.43;;;;;;;;;;5123626;27;20054;-64
2022/04/22 07:28:56;;;;;;;20.15;9.07;;;;;;;;;;5119550;27;20506;-64
2022/04/22 07:31:23;;;;;;;16.15;9.38;;;;;;;;;;5129205;27;20147;-64
2022/04/22 07:33:51;;;;;;;17.63;10.32;;;;;;;;;;5129584;27;20056;-65
2022/04/22 07:36:18;;;;;;;14.68;8.30;;;;;;;;;;5129411;27;20544;-65
2022/04/22 07:38:44;;;;;;;17.63;8.70;;;;;;;;;;5129286;27;20064;-64
2022/04/22 07:41:11;;;;;;;14.90;8.02;;;;;;;;;;5129422;27;20051;-64
2022/04/22 07:49:09;;;;;;;14.85;8.38;;;;;;;;;;5129671;27;20494;-64
2022/04/22 07:51:35;;;;;;;15.98;8.60;;;;;;;;;;5127994;27;20052;-64
2022/04/22 07:54:01;;;;;;;17.35;8.75;;;;;;;;;;5129264;27;20071;-65
2022/04/22 07:56:28;;;;;;;12.45;6.95;;;;;;;;;;5119115;27;20105;-64
2022/04/22 07:58:56;;;;;;;17.63;8.45;;;;;;;;;;5123148;27;20044;-64
2022/04/22 08:01:22;;;;;;;16.63;8.85;;;;;;;;;;5129261;27;20079;-64
2022/04/22 08:03:49;;;;;;;14.77;8.30;;;;;;;;;;5123965;27;20151;-64
2022/04/22 08:06:15;;;;;;;13.15;7.93;;;;;;;;;;5114573;27;20174;-64
2022/04/22 08:08:41;;;;;;;13.07;8.00;;;;;;;;;;5129481;27;20059;-64
2022/04/22 08:11:08;;;;;;;17.08;7.97;;;;;;;;;;5125984;27;20142;-65
2022/04/22 08:13:35;;;;;;;16.55;7.22;;;;;;;;;;5108288;27;20048;-64
2022/04/22 08:16:01;;;;;;;13.48;7.03;;;;;;;;;;5112037;27;20052;-64
2022/04/22 08:18:28;;;;;;;15.80;8.32;;;;;;;;;;5128187;27;20062;-64
2022/04/22 08:20:54;;;;;;;15.95;8.15;;;;;;;;;;5128064;27;20083;-64
2022/04/22 08:23:22;;;;;;;16.88;7.63;;;;;;;;;;5129033;27;20109;-62
2022/04/22 08:25:49;;;;;;;14.93;8.30;;;;;;;;;;5127748;27;20048;-62
2022/04/22 08:28:15;;;;;;;15.25;8.80;;;;;;;;;;5114891;27;20532;-62
2022/04/22 08:30:41;;;;;;;14.63;7.63;;;;;;;;;;5128475;27;20510;-62
2022/04/22 08:33:08;;;;;;;14.38;7.30;;;;;;;;;;5108558;27;20052;-62
2022/04/22 08:35:37;;;;;;;16.10;7.88;;;;;;;;;;5110103;27;20496;-62
2022/04/22 08:38:06;;;;;;;12.93;7.25;;;;;;;;;;5123167;27;20579;-62
2022/04/22 08:40:35;;;;;;;12.75;7.22;;;;;;;;;;5109740;27;20083;-62
2022/04/22 08:43:01;;;;;;;13.32;6.97;;;;;;;;;;5121383;27;20141;-63
2022/04/22 08:45:28;;;;;;;14.63;6.65;;;;;;;;;;5128739;27;20083;-62
2022/04/22 08:50:41;;;;;;;11.82;6.57;;;;;;;;;;5127866;27;20525;-62
2022/04/22 08:53:08;;;;;;;13.57;6.45;;;;;;;;;;5128586;27;20082;-62
2022/04/22 08:55:36;;;;;;;13.90;7.60;;;;;;;;;;5128334;27;20113;-62
2022/04/22 08:58:05;;;;;;;16.52;7.32;;;;;;;;;;5128693;27;20266;-63
2022/04/22 09:00:35;;;;;;;12.30;6.47;;;;;;;;;;5128853;27;20047;-63
2022/04/22 09:03:02;;;;;;;12.18;6.00;;;;;;;;;;5127962;27;20110;-63
2022/04/22 09:05:29;;;;;;;13.35;6.25;;;;;;;;;;5128306;27;20056;-63
2022/04/22 09:07:56;;;;;;;13.13;6.22;;;;;;;;;;5127697;27;20126;-63
2022/04/22 09:10:22;;;;;;;12.10;6.40;;;;;;;;;;5128244;27;20052;-62
2022/04/22 09:12:51;;;;;;;13.90;7.22;;;;;;;;;;5127961;27;20055;-63
2022/04/22 09:15:20;;;;;;;12.90;6.38;;;;;;;;;;5127859;27;20533;-63
2022/04/22 09:17:46;;;;;;;12.13;6.57;;;;;;;;;;5127781;27;20055;-62
2022/04/22 09:20:14;;;;;;;10.65;5.85;;;;;;;;;;5127760;27;20531;-62
2022/04/22 09:22:44;;;;;;;10.48;5.32;;;;;;;;;;5128095;27;20261;-63
2022/04/22 09:25:10;;;;;;;10.88;6.05;;;;;;;;;;5127957;27;20047;-63
2022/04/22 09:27:38;;;;;;;11.75;6.47;;;;;;;;;;5127256;27;20079;-63
2022/04/22 09:30:07;;;;;;;11.33;5.83;;;;;;;;;;5127588;27;20087;-63
2022/04/22 09:32:34;;;;;;;13.75;5.65;;;;;;;;;;5128697;27;20162;-63
2022/04/22 09:35:11;;;;;;;10.75;5.32;;;;;;;;;;5127700;27;20083;-63
2022/04/22 09:43:35;;;;;;;10.70;5.40;;;;;;;;;;5128467;27;20142;-63
2022/04/22 09:46:23;;;;;;;13.05;5.82;;;;;;;;;;5131320;27;20051;-63
2022/04/22 09:48:50;;;;;;;9.38;5.78;;;;;;;;;;5130823;27;20051;-63
2022/04/22 09:51:22;;;;;;;12.55;6.18;;;;;;;;;;5131201;27;20051;-64
2022/04/22 09:53:58;;;;;;;12.27;5.53;;;;;;;;;;5130199;27;20561;-63
2022/04/22 09:56:24;;;;;;;11.50;5.38;;;;;;;;;;5131374;27;20529;-63
2022/04/22 09:58:50;;;;;;;11.18;5.18;;;;;;;;;;5130444;27;20148;-63
2022/04/22 10:01:17;;;;;;;9.40;5.22;;;;;;;;;;5131047;27;20130;-63
2022/04/22 10:03:48;;;;;;;13.48;5.80;;;;;;;;;;5130767;27;20090;-63
2022/04/22 10:06:14;;;;;;;13.07;6.15;;;;;;;;;;5131259;27;20056;-63
2022/04/22 10:08:43;;;;;;;10.63;6.18;;;;;;;;;;5130304;27;20551;-63
2022/04/22 10:11:29;;;;;;;12.32;5.78;;;;;;;;;;5130319;27;20048;-63
2022/04/22 10:13:55;;;;;;;11.25;5.57;;;;;;;;;;5130554;27;20104;-62
2022/04/22 10:16:21;;;;;;;11.65;5.50;;;;;;;;;;5131303;27;20047;-63
2022/04/22 10:18:50;;;;;;;14.80;5.70;;;;;;;;;;5111656;27;20051;-66
2022/04/22 10:21:16;;;;;;;;;;;;;;;;;;5111720;27;20088;-65
2022/04/22 10:23:44;;;;;;;12.23;5.22;;;;;;;;;;5108840;28;45795;-65
2022/04/22 10:26:11;;;;;;;;;;;;;;;;;;5110110;27;20407;-65
2022/04/22 10:28:38;;;;;;;12.48;5.30;;;;;;;;;;5129405;27;44366;-66
2022/04/22 10:31:04;;;;;;;15.10;5.65;;;;;;;;;;5130958;27;20055;-65
2022/04/22 10:33:44;;;;;;;11.05;5.45;;;;;;;;;;5113966;27;20520;-66
2022/04/22 10:36:14;;;;;;;7.75;4.72;;;;;;;;;;5127369;27;20055;-66
2022/04/22 10:38:44;;;;;;;10.73;5.40;;;;;;;;;;5109734;27;20044;-65
2022/04/22 10:41:13;;;;;;;9.77;4.85;;;;;;;;;;5109900;27;20052;-65
2022/04/22 10:43:40;;;;;;;9.88;5.75;;;;;;;;;;5128405;27;20083;-65
2022/04/22 10:49:10;;;;;;;10.73;4.30;;;;;;;;;;5079976;27;20484;-65
2022/04/22 10:51:55;;;;;;;10.20;5.40;;;;;;;;;;5109349;27;20056;-65
2022/04/22 10:54:42;;;;;;;12.95;5.35;;;;;;;;;;5110239;27;20200;-65
2022/04/22 10:57:34;;;;;;;12.23;4.72;;;;;;;;;;5109180;27;20105;-65
2022/04/22 11:00:06;;;;;;;9.00;5.05;;;;;;;;;;5110536;27;20113;-63
2022/04/22 11:02:36;;;;;;;11.15;4.75;;;;;;;;;;5112544;27;20075;-64
2022/04/22 11:05:19;;;;;;;11.27;5.15;;;;;;;;;;5130096;27;20106;-63
2022/04/22 11:07:51;;;;;;;8.80;4.25;;;;;;;;;;5120508;27;20105;-64
2022/04/22 11:10:18;;;;;;;8.52;4.22;;;;;;;;;;5109965;27;20506;-64
2022/04/22 11:12:51;;;;;;;7.45;3.65;;;;;;;;;;5109015;27;20059;-63
2022/04/22 11:15:37;;;;;;;8.43;4.18;;;;;;;;;;5109602;27;20052;-64
2022/04/22 11:18:03;;;;;;;8.93;4.15;;;;;;;;;;5112580;27;20498;-64
2022/04/22 11:20:29;;;;;;;9.80;4.15;;;;;;;;;;5109029;27;20161;-64
2022/04/22 11:22:56;;;;;;;8.48;4.20;;;;;;;;;;5109507;27;20188;-64
2022/04/22 11:25:24;;;;;;;9.18;3.60;;;;;;;;;;5112204;27;20066;-64
2022/04/22 11:27:53;;;;;;;11.48;3.53;;;;;;;;;;5122045;27;20095;-64
2022/04/22 11:30:19;;;;;;;7.22;3.33;;;;;;;;;;5115747;27;20080;-64
2022/04/22 11:32:48;;;;;;;7.43;3.55;;;;;;;;;;5109211;27;20143;-65
2022/04/22 11:35:31;;;;;;;7.47;2.78;;;;;;;;;;5114589;27;20870;-64
2022/04/22 11:37:59;;;;;;;6.07;2.90;;;;;;;;;;5113142;27;20083;-63
2022/04/22 11:40:26;;;;;;;6.22;2.78;;;;;;;;;;5127557;27;20052;-64
2022/04/22 11:43:10;;;;;;;4.88;2.35;;;;;;;;;;5115434;27;20059;-64
2022/04/22 11:45:41;;;;;;;4.00;2.30;;;;;;;;;;5128185;27;20081;-64
2022/04/22 11:48:08;;;;;;;5.53;2.35;;;;;;;;;;5129032;27;20062;-64
2022/04/22 11:50:41;;;;;;;15.45;2.95;;;;;;;;;;5116127;27;20076;-66
2022/04/22 11:53:15;;;;;;;6.43;2.30;;;;;;;;;;5129697;27;20568;-66
2022/04/22 11:55:42;;;;;;;7.20;2.45;;;;;;;;;;5128736;27;20114;-64
2022/04/22 11:58:09;;;;;;;7.03;2.03;;;;;;;;;;5127735;27;20083;-65
2022/04/22 12:06:14;;;;;;;7.50;2.67;;;;;;;;;;5128841;27;20097;-65
2022/04/22 12:08:50;;;;;;;7.40;2.70;;;;;;;;;;5128365;27;20116;-65
2022/04/22 12:11:16;;;;;;;5.45;2.60;;;;;;;;;;5109190;27;20114;-66
2022/04/22 12:13:47;;;;;;;7.32;2.70;;;;;;;;;;5114843;27;20059;-65
2022/04/22 12:16:27;;;;;;;8.13;2.63;;;;;;;;;;5129453;27;20601;-65
2022/04/22 12:18:54;;;;;;;6.47;2.55;;;;;;;;;;5128404;27;20055;-66
2022/04/22 12:21:21;;;;;;;4.85;2.30;;;;;;;;;;5123706;27;20055;-66
2022/04/22 12:23:48;;;;;;;7.20;2.95;;;;;;;;;;5108754;27;20088;-66
2022/04/22 12:26:18;;;;;;;6.03;2.50;;;;;;;;;;5108883;27;20127;-66
2022/04/22 12:28:57;;;;;;;7.20;2.38;;;;;;;;;;5108249;27;20082;-66
2022/04/22 12:31:25;;;;;;;7.90;2.80;;;;;;;;;;5122435;27;20449;-66
2022/04/22 12:33:57;;;;;;;10.03;3.13;;;;;;;;;;5108531;27;20520;-60
2022/04/22 12:36:24;;;;;;;7.97;2.58;;;;;;;;;;5107648;27;20328;-62
2022/04/22 12:38:50;;;;;;;5.75;2.50;;;;;;;;;;5126325;27;20138;-63
2022/04/22 12:41:18;;;;;;;6.68;2.72;;;;;;;;;;5121181;27;20079;-64
2022/04/22 12:43:47;;;;;;;8.33;2.80;;;;;;;;;;5108207;27;20060;-64
2022/04/22 12:52:17;;;;;;;6.90;2.60;;;;;;;;;;5117656;27;20051;-64
2022/04/22 12:54:45;;;;;;;8.38;2.92;;;;;;;;;;5124120;27;20110;-64
2022/04/22 12:57:32;;;;;;;5.72;2.30;;;;;;;;;;5108274;27;20052;-64
2022/04/22 12:59:58;;;;;;;5.03;2.70;;;;;;;;;;5116119;27;20113;-64
2022/04/22 13:02:44;;;;;;;7.47;2.60;;;;;;;;;;5128812;27;20509;-63
2022/04/22 13:05:21;;;;;;;6.38;2.70;;;;;;;;;;5122042;27;20098;-62
2022/04/22 13:07:49;;;;;;;5.47;2.55;;;;;;;;;;5128547;27;20142;-62
2022/04/22 13:10:20;;;;;;;4.68;2.55;;;;;;;;;;5112736;27;20060;-62
2022/04/22 13:12:48;;;;;;;6.65;2.42;;;;;;;;;;5109196;27;20079;-62
2022/04/22 13:15:19;;;;;;;7.50;2.53;;;;;;;;;;5107917;27;20113;-65
2022/04/22 13:17:46;;;;;;;8.00;2.80;;;;;;;;;;5123594;27;20052;-64
2022/04/22 13:20:17;;;;;;;5.57;2.80;;;;;;;;;;5131970;27;20051;-64
2022/04/22 13:22:45;;;;;;;6.38;3.00;;;;;;;;;;5132187;27;20150;-64
2022/04/22 13:25:12;;;;;;;7.03;2.78;;;;;;;;;;5111496;27;20590;-64
2022/04/22 13:27:39;;;;;;;9.57;2.63;;;;;;;;;;5110896;27;20109;-64
2022/04/22 13:30:06;;;;;;;5.20;2.72;;;;;;;;;;5111471;27;20129;-65
2022/04/22 13:32:32;;;;;;;5.53;2.70;;;;;;;;;;5127708;27;20714;-64
2022/04/22 13:34:58;;;;;;;11.35;3.03;;;;;;;;;;5114264;27;20131;-65
2022/04/22 13:37:25;;;;;;;10.00;3.05;;;;;;;;;;5110861;27;20106;-65
2022/04/22 13:39:51;;;;;;;6.18;2.47;;;;;;;;;;5111164;27;20083;-65
2022/04/22 13:42:20;;;;;;;7.68;2.80;;;;;;;;;;5110085;27;20064;-65
2022/04/22 13:53:02;;;;;;;7.00;2.67;;;;;;;;;;5110938;27;20153;-65
2022/04/22 13:55:28;;;;;;;7.15;2.60;;;;;;;;;;5111572;27;20079;-65
2022/04/22 13:57:55;;;;;;;5.03;2.60;;;;;;;;;;5130402;27;20528;-65
2022/04/22 14:00:24;;;;;;;4.75;2.33;;;;;;;;;;5130830;27;20109;-65
2022/04/22 14:02:51;;;;;;;7.90;2.80;;;;;;;;;;5128249;27;20091;-65
2022/04/22 14:05:21;;;;;;;5.85;2.53;;;;;;;;;;5119071;27;20136;-65
2022/04/22 14:07:48;;;;;;;5.80;2.42;;;;;;;;;;5110921;27;20056;-65
2022/04/22 14:10:15;;;;;;;6.00;2.35;;;;;;;;;;5110517;27;20081;-65
2022/04/22 14:12:41;;;;;;;7.10;2.80;;;;;;;;;;5110893;27;20137;-65
2022/04/22 14:15:08;;;;;;;6.75;2.50;;;;;;;;;;5118434;27;20075;-65
2022/04/22 14:17:35;;;;;;;6.05;2.33;;;;;;;;;;5130168;27;20056;-65
2022/04/22 14:20:03;;;;;;;11.40;2.92;;;;;;;;;;5130983;27;20060;-65
2022/04/22 14:22:30;;;;;;;8.65;2.63;;;;;;;;;;5126185;27;20842;-65
2022/04/22 14:24:57;;;;;;;4.28;2.35;;;;;;;;;;5117265;27;20142;-65
2022/04/22 14:27:23;;;;;;;8.68;2.47;;;;;;;;;;5110837;27;20079;-65
2022/04/22 14:29:50;;;;;;;4.65;2.10;;;;;;;;;;5109228;27;20479;-65
2022/04/22 14:32:16;;;;;;;9.93;2.63;;;;;;;;;;5115216;27;20083;-65
2022/04/22 14:34:44;;;;;;;11.00;2.60;;;;;;;;;;5113122;27;20052;-65
2022/04/22 14:37:10;;;;;;;9.00;2.70;;;;;;;;;;5125643;27;20060;-65
2022/04/22 14:39:38;;;;;;;8.98;2.47;;;;;;;;;;5115239;27;20119;-65
2022/04/22 14:42:04;;;;;;;5.60;2.45;;;;;;;;;;5109448;27;20717;-65
2022/04/22 14:44:31;;;;;;;9.55;2.80;;;;;;;;;;5109214;27;20087;-64
2022/04/22 14:46:58;;;;;;;7.78;2.40;;;;;;;;;;5126151;27;20047;-65
2022/04/22 14:49:24;;;;;;;8.82;2.90;;;;;;;;;;5130028;27;20056;-65
2022/04/22 14:51:52;;;;;;;8.68;3.10;;;;;;;;;;5129838;27;20170;-65
2022/04/22 14:54:19;;;;;;;6.50;2.72;;;;;;;;;;5129272;27;20187;-65
2022/04/22 14:56:45;;;;;;;8.13;3.10;;;;;;;;;;5129893;27;20141;-65
2022/04/22 14:59:12;;;;;;;6.65;3.00;;;;;;;;;;5129899;27;20134;-65
2022/04/22 15:01:39;;;;;;;11.25;3.38;;;;;;;;;;5129797;27;20083;-65
2022/04/22 15:04:06;;;;;;;7.75;3.20;;;;;;;;;;5130218;27;20090;-65
2022/04/22 15:06:33;;;;;;;10.27;2.93;;;;;;;;;;5130350;27;20146;-66
2022/04/22 15:09:02;;;;;;;5.60;2.90;;;;;;;;;;5128793;27;20131;-65
2022/04/22 15:11:28;;;;;;;5.82;2.70;;;;;;;;;;5129204;27;20112;-65
2022/04/22 15:13:56;;;;;;;9.02;3.33;;;;;;;;;;5129892;27;20138;-65
2022/04/22 15:16:27;;;;;;;8.90;3.20;;;;;;;;;;5121517;27;20082;-65
2022/04/22 15:24:23;;;;;;;7.53;3.35;;;;;;;;;;5124164;27;20051;-64
2022/04/22 15:26:53;;;;;;;6.85;3.28;;;;;;;;;;5117508;27;20103;-64
2022/04/22 15:29:20;;;;;;;10.05;3.67;;;;;;;;;;5111376;27;20476;-64
2022/04/22 15:31:47;;;;;;;10.40;3.67;;;;;;;;;;5113271;27;20052;-64
2022/04/22 15:34:13;;;;;;;8.15;3.47;;;;;;;;;;5112606;27;20039;-64
2022/04/22 15:36:40;;;;;;;8.02;3.30;;;;;;;;;;5129043;27;20646;-64
2022/04/22 15:39:07;;;;;;;9.63;3.60;;;;;;;;;;5129331;27;20082;-64
2022/04/22 15:41:33;;;;;;;8.00;3.40;;;;;;;;;;5127867;27;20078;-64
2022/04/22 15:44:01;;;;;;;9.40;3.58;;;;;;;;;;5124958;27;21957;-64
2022/04/22 15:46:28;;;;;;;9.70;3.72;;;;;;;;;;5111836;27;20064;-60
2022/04/22 15:48:54;;;;;;;5.53;3.42;;;;;;;;;;5112197;27;20090;-60
2022/04/22 15:51:21;;;;;;;8.55;3.70;;;;;;;;;;5108916;27;20129;-60
2022/04/22 15:53:50;;;;;;;8.55;3.90;;;;;;;;;;5112399;27;20047;-61